Denver, Colorado
Traffic Map
Current Weather Conditions
Denver, Colorado
Overcast Light Rain
Overcast
39°
Feels Like: 28°
Wind Chill: 28° Ceiling: 500
Heat Index: 39° Visibility: 5mi
Dew Point: 39° Wind: 23mph
Humidity: 100% Direction: 340° (NNW)
Pressure: 29.95in Gusts: 33mph
Raw Report DataKBKF 290158Z 34020G29KT 5SM -RA BR BKN005 OVC012 04/04 A2995 RMK AO2A SLP128 P0001 T00380038
Traffic Incident Summary
Active as of:
Severity:
Category:
InformationThere was an issue retrieving the traffic information for this location. Please try a different location or try again shortly.
Advertisements
Track Severe Weather on mobile